createdAt,value
2018-10-17T00:00:56.127Z,17.10
2018-10-17T00:03:23.241Z,13.20
2018-10-17T00:05:50.354Z,14.77
2018-10-17T00:08:17.437Z,14.57
2018-10-17T00:10:44.624Z,15.40
2018-10-17T00:13:11.885Z,16.40
2018-10-17T00:15:38.919Z,15.27
2018-10-17T00:18:05.989Z,16.70
2018-10-17T00:20:33.268Z,13.87
2018-10-17T00:23:00.424Z,13.37
2018-10-17T00:25:27.581Z,17.40
2018-10-17T00:27:54.943Z,15.67
2018-10-17T00:30:25.483Z,17.17
2018-10-17T00:32:52.603Z,15.93
2018-10-17T00:35:19.977Z,16.53
2018-10-17T00:37:47.065Z,16.13
2018-10-17T00:40:14.148Z,14.13
2018-10-17T00:42:41.255Z,15.07
2018-10-17T00:45:08.640Z,12.03
2018-10-17T00:47:35.865Z,13.40
2018-10-17T00:50:02.962Z,16.20
2018-10-17T00:52:30.221Z,12.73
2018-10-17T00:54:57.297Z,13.17
2018-10-17T00:57:24.427Z,11.60
2018-10-17T00:59:51.511Z,12.83
2018-10-17T01:02:18.601Z,13.00
2018-10-17T01:04:45.657Z,10.90
2018-10-17T01:07:12.823Z,13.70
2018-10-17T01:09:39.904Z,11.97
2018-10-17T01:12:06.955Z,14.13
2018-10-17T01:14:34.082Z,10.70
2018-10-17T01:17:01.185Z,14.13
2018-10-17T01:19:28.269Z,14.30
2018-10-17T01:21:55.359Z,12.10
2018-10-17T01:24:22.462Z,12.57
2018-10-17T01:26:49.617Z,13.37
2018-10-17T01:29:17.015Z,13.87
2018-10-17T01:31:44.019Z,16.33
2018-10-17T01:34:11.072Z,12.30
2018-10-17T01:36:38.412Z,14.17
2018-10-17T01:39:05.703Z,15.10
2018-10-17T01:41:32.844Z,11.77
2018-10-17T01:44:00.023Z,11.93
2018-10-17T01:46:27.147Z,14.87
2018-10-17T01:48:54.239Z,15.73
2018-10-17T01:51:21.294Z,13.77
2018-10-17T01:53:48.460Z,14.03
2018-10-17T01:56:15.642Z,12.20
2018-10-17T01:58:42.911Z,13.57
2018-10-17T02:01:10.223Z,16.57
2018-10-17T02:03:37.504Z,11.53
2018-10-17T02:06:04.780Z,12.40
2018-10-17T02:08:31.929Z,10.20
2018-10-17T02:10:59.176Z,14.17
2018-10-17T02:13:26.378Z,13.97
2018-10-17T02:15:54.005Z,11.97
2018-10-17T02:18:21.405Z,11.53
2018-10-17T02:20:48.922Z,15.83
2018-10-17T02:23:16.155Z,14.97
2018-10-17T02:25:43.319Z,13.17
2018-10-17T02:28:10.564Z,13.10
2018-10-17T02:30:37.645Z,13.30
2018-10-17T02:33:04.747Z,15.67
2018-10-17T02:35:31.892Z,11.93
2018-10-17T02:37:59.086Z,15.63
2018-10-17T02:40:26.389Z,13.20
2018-10-17T02:42:53.656Z,12.47
2018-10-17T02:45:20.804Z,12.10
2018-10-17T02:47:48.105Z,15.37
2018-10-17T02:50:15.477Z,15.53
2018-10-17T02:52:43.219Z,14.13
2018-10-17T02:55:10.537Z,12.07
2018-10-17T02:57:38.313Z,13.60
2018-10-17T03:00:05.425Z,13.40
2018-10-17T03:02:32.959Z,15.50
2018-10-17T03:05:00.197Z,14.40
2018-10-17T03:07:27.529Z,13.70
2018-10-17T03:09:54.609Z,13.53
2018-10-17T03:12:21.652Z,16.03
2018-10-17T03:14:50.021Z,11.70
2018-10-17T03:17:17.127Z,14.17
2018-10-17T03:19:44.431Z,12.40
2018-10-17T03:22:11.781Z,11.40
2018-10-17T03:24:38.923Z,10.77
2018-10-17T03:27:06.195Z,11.13
2018-10-17T03:29:33.325Z,14.37
2018-10-17T03:32:00.400Z,11.20
2018-10-17T03:34:27.493Z,13.27
2018-10-17T03:36:54.760Z,11.80
2018-10-17T03:39:21.835Z,12.73
2018-10-17T03:41:48.926Z,13.47
2018-10-17T03:44:16.089Z,13.40
2018-10-17T03:46:43.249Z,14.50
2018-10-17T03:49:10.495Z,15.53
2018-10-17T03:51:37.573Z,12.93
2018-10-17T03:54:04.763Z,12.17
2018-10-17T03:56:31.946Z,12.27
2018-10-17T03:58:59.487Z,11.77
2018-10-17T04:01:26.509Z,12.73
2018-10-17T04:06:28.379Z,13.40
2018-10-17T04:08:55.485Z,13.33
2018-10-17T04:11:22.730Z,11.60
2018-10-17T04:13:49.917Z,14.37
2018-10-17T04:16:17.227Z,12.93
2018-10-17T04:18:44.399Z,13.47
2018-10-17T04:21:11.714Z,11.40
2018-10-17T04:23:38.804Z,13.47
2018-10-17T04:26:06.114Z,13.43
2018-10-17T04:28:33.293Z,12.43
2018-10-17T04:31:00.644Z,13.40
2018-10-17T04:33:27.793Z,13.03
2018-10-17T04:35:55.203Z,9.20
2018-10-17T04:38:22.545Z,12.23
2018-10-17T04:40:49.829Z,12.13
2018-10-17T04:43:17.248Z,13.97
2018-10-17T04:45:44.429Z,11.83
2018-10-17T04:48:11.626Z,13.17
2018-10-17T04:50:38.995Z,11.70
2018-10-17T04:53:06.291Z,12.50
2018-10-17T04:55:33.330Z,13.30
2018-10-17T04:58:00.680Z,12.93
2018-10-17T05:00:27.866Z,14.03
2018-10-17T05:02:55.390Z,11.03
2018-10-17T05:05:22.575Z,11.97
2018-10-17T05:07:49.752Z,11.83
2018-10-17T05:10:16.875Z,12.20
2018-10-17T05:12:43.970Z,12.67
2018-10-17T05:15:11.124Z,12.37
2018-10-17T05:17:38.202Z,12.23
2018-10-17T05:20:05.322Z,13.60
2018-10-17T05:22:32.561Z,11.57
2018-10-17T05:24:59.677Z,10.70
2018-10-17T05:27:26.813Z,12.43
2018-10-17T05:29:54.008Z,10.90
2018-10-17T05:32:21.117Z,13.00
2018-10-17T05:34:48.195Z,13.60
2018-10-17T05:37:15.771Z,10.73
2018-10-17T05:39:42.791Z,11.90
2018-10-17T05:42:09.916Z,12.07
2018-10-17T05:44:37.387Z,13.27
2018-10-17T05:47:04.466Z,13.77
2018-10-17T05:49:31.481Z,12.80
2018-10-17T05:51:58.621Z,9.43
2018-10-17T05:54:25.708Z,10.53
2018-10-17T05:56:52.879Z,12.53
2018-10-17T05:59:19.983Z,10.67
2018-10-17T06:01:47.471Z,11.20
2018-10-17T06:04:14.454Z,11.10
2018-10-17T06:06:41.632Z,14.73
2018-10-17T06:09:09.773Z,11.87
2018-10-17T06:11:36.945Z,11.43
2018-10-17T06:14:04.390Z,10.13
2018-10-17T06:16:31.747Z,12.87
2018-10-17T06:18:59.021Z,11.10
2018-10-17T06:21:26.189Z,13.63
2018-10-17T06:23:53.608Z,10.07
2018-10-17T06:26:21.093Z,12.60
2018-10-17T06:28:48.184Z,11.03
2018-10-17T06:31:15.337Z,11.37
2018-10-17T06:33:42.397Z,13.73
2018-10-17T06:36:09.560Z,11.93
2018-10-17T06:38:36.712Z,10.80
2018-10-17T06:41:04.050Z,10.47
2018-10-17T06:43:31.221Z,12.20
2018-10-17T06:45:58.646Z,13.30
2018-10-17T06:48:25.910Z,12.07
2018-10-17T06:50:53.234Z,10.60
2018-10-17T06:53:20.470Z,11.13
2018-10-17T06:55:47.602Z,14.03
2018-10-17T06:58:14.829Z,11.20
2018-10-17T07:00:41.994Z,10.43
2018-10-17T07:03:09.186Z,14.73
2018-10-17T07:05:36.332Z,11.03
2018-10-17T07:08:03.664Z,12.40
2018-10-17T07:10:31.028Z,12.87
2018-10-17T07:12:58.340Z,13.83
2018-10-17T07:18:04.689Z,12.43
2018-10-17T07:20:31.771Z,11.60
2018-10-17T07:22:59.137Z,10.83
2018-10-17T07:25:26.390Z,12.80
2018-10-17T07:27:53.458Z,14.17
2018-10-17T07:30:20.515Z,13.77
2018-10-17T07:32:47.874Z,12.07
2018-10-17T07:35:14.983Z,11.73
2018-10-17T07:37:42.492Z,12.10
2018-10-17T07:40:09.784Z,13.47
2018-10-17T07:42:36.902Z,10.60
2018-10-17T07:45:04.014Z,12.60
2018-10-17T07:47:31.148Z,13.63
2018-10-17T07:49:58.294Z,11.10
2018-10-17T07:52:25.502Z,13.30
2018-10-17T07:54:52.572Z,14.40
2018-10-17T07:57:19.684Z,13.77
2018-10-17T07:59:47.019Z,11.23
2018-10-17T08:02:14.038Z,12.63
2018-10-17T08:04:41.213Z,12.80
2018-10-17T08:07:08.367Z,11.67
2018-10-17T08:09:35.651Z,12.83
2018-10-17T08:12:02.892Z,14.67
2018-10-17T08:14:30.083Z,12.70
2018-10-17T08:16:57.215Z,11.17
2018-10-17T08:19:24.549Z,12.57
2018-10-17T08:21:52.069Z,12.37
2018-10-17T08:24:19.230Z,15.63
2018-10-17T08:26:46.467Z,12.73
2018-10-17T08:29:14.089Z,10.43
2018-10-17T08:31:41.231Z,23.47
2018-10-17T08:34:08.479Z,24.37
2018-10-17T08:36:35.883Z,22.23
2018-10-17T08:39:03.455Z,25.00
2018-10-17T08:41:30.757Z,25.37
2018-10-17T08:43:58.164Z,23.60
2018-10-17T08:46:25.295Z,25.00
2018-10-17T08:48:52.551Z,26.37
2018-10-17T08:51:19.925Z,29.03
2018-10-17T08:53:47.328Z,26.20
2018-10-17T08:56:14.620Z,28.27
2018-10-17T08:58:41.778Z,28.97
2018-10-17T09:01:09.131Z,26.37
2018-10-17T09:06:07.320Z,29.47
2018-10-17T09:08:34.596Z,25.10
2018-10-17T09:11:01.787Z,22.53
2018-10-17T09:13:29.135Z,23.40
2018-10-17T09:15:56.438Z,23.70
2018-10-17T09:18:23.876Z,23.17
2018-10-17T09:20:51.660Z,24.70
2018-10-17T09:23:18.604Z,23.47
2018-10-17T09:25:45.879Z,24.20
2018-10-17T09:28:13.385Z,26.13
2018-10-17T09:30:40.749Z,22.37
2018-10-17T09:33:07.764Z,24.97
2018-10-17T09:35:35.185Z,22.93
2018-10-17T09:38:02.536Z,19.50
2018-10-17T09:40:29.777Z,20.17
2018-10-17T09:42:57.074Z,20.73
2018-10-17T09:45:24.201Z,18.40
2018-10-17T09:47:51.366Z,22.40
2018-10-17T09:50:18.548Z,15.30
2018-10-17T09:52:45.717Z,16.33
2018-10-17T09:55:13.299Z,17.77
2018-10-17T09:57:40.974Z,18.70
2018-10-17T10:00:27.267Z,17.40
2018-10-17T10:02:54.457Z,15.30
2018-10-17T10:05:22.090Z,13.73
2018-10-17T10:07:49.369Z,16.00
2018-10-17T10:10:16.946Z,19.13
2018-10-17T10:12:43.960Z,17.37
2018-10-17T10:15:11.382Z,17.67
2018-10-17T10:17:38.565Z,13.70
2018-10-17T10:20:05.739Z,14.50
2018-10-17T10:22:33.229Z,15.33
2018-10-17T10:25:04.660Z,16.07
2018-10-17T10:27:31.717Z,14.77
2018-10-17T10:29:58.948Z,15.17
2018-10-17T10:32:25.984Z,15.90
2018-10-17T10:34:53.128Z,16.70
2018-10-17T10:37:20.213Z,13.77
2018-10-17T10:39:47.290Z,15.37
2018-10-17T10:42:14.479Z,13.13
2018-10-17T10:44:41.563Z,13.17
2018-10-17T10:47:08.753Z,13.17
2018-10-17T10:49:35.930Z,14.00
2018-10-17T10:52:03.016Z,13.63
2018-10-17T10:57:04.741Z,18.60
2018-10-17T10:59:33.837Z,12.83
2018-10-17T11:02:00.819Z,16.33
2018-10-17T11:04:28.010Z,20.17
2018-10-17T11:06:55.306Z,18.97
2018-10-17T11:09:22.527Z,17.90
2018-10-17T11:11:49.748Z,16.73
2018-10-17T11:14:17.124Z,15.80
2018-10-17T11:16:44.253Z,18.93
2018-10-17T11:19:11.535Z,16.30
2018-10-17T11:21:38.763Z,14.03
2018-10-17T11:24:05.976Z,17.07
2018-10-17T11:26:33.170Z,18.77
2018-10-17T11:29:00.585Z,16.77
2018-10-17T11:31:27.737Z,17.10
2018-10-17T11:33:54.958Z,16.93
2018-10-17T11:36:22.272Z,16.27
2018-10-17T11:38:49.346Z,15.97
2018-10-17T11:41:16.562Z,16.60
2018-10-17T11:43:43.812Z,16.80
2018-10-17T11:46:11.290Z,14.10
2018-10-17T11:48:38.468Z,14.73
2018-10-17T11:51:05.978Z,16.57
2018-10-17T11:53:33.330Z,15.73
2018-10-17T11:56:00.711Z,14.23
2018-10-17T11:58:28.178Z,14.83
2018-10-17T12:00:55.322Z,13.97
2018-10-17T12:03:22.590Z,14.47
2018-10-17T12:05:49.913Z,15.57
2018-10-17T12:08:17.179Z,11.60
2018-10-17T12:10:47.783Z,12.03
2018-10-17T12:13:15.104Z,13.93
2018-10-17T12:15:42.844Z,13.03
2018-10-17T12:18:10.045Z,13.87
2018-10-17T12:20:37.152Z,14.17
2018-10-17T12:23:04.231Z,14.23
2018-10-17T12:28:23.657Z,15.77
2018-10-17T12:30:50.987Z,14.87
2018-10-17T12:33:18.599Z,11.80
2018-10-17T12:35:45.767Z,14.33
2018-10-17T12:38:12.903Z,12.00
2018-10-17T12:40:40.164Z,11.03
2018-10-17T12:43:07.177Z,12.33
2018-10-17T12:45:34.357Z,11.07
2018-10-17T12:48:01.429Z,13.77
2018-10-17T12:50:28.695Z,13.67
2018-10-17T12:52:56.030Z,11.13
2018-10-17T12:55:23.185Z,10.77
2018-10-17T12:57:50.506Z,10.03
2018-10-17T13:00:17.747Z,10.70
2018-10-17T13:02:44.866Z,9.27
2018-10-17T13:05:12.336Z,8.00
2018-10-17T13:07:39.655Z,10.53
2018-10-17T13:10:06.841Z,8.13
2018-10-17T13:12:34.135Z,10.20
2018-10-17T13:15:01.645Z,11.20
2018-10-17T13:17:28.653Z,7.07
2018-10-17T13:19:55.894Z,9.43
2018-10-17T13:22:23.262Z,9.37
2018-10-17T13:24:50.534Z,7.07
2018-10-17T13:27:17.972Z,8.50
2018-10-17T13:29:45.080Z,8.00
2018-10-17T13:32:12.212Z,7.40
2018-10-17T13:34:39.916Z,8.23
2018-10-17T13:37:07.695Z,9.23
2018-10-17T13:39:34.732Z,7.77
2018-10-17T13:42:01.933Z,7.00
2018-10-17T13:44:29.268Z,6.60
2018-10-17T13:46:56.521Z,6.60
2018-10-17T13:49:23.761Z,7.63
2018-10-17T13:51:54.317Z,6.27
2018-10-17T13:54:19.997Z,7.40
2018-10-17T13:56:47.185Z,10.43
2018-10-17T13:59:14.307Z,6.00
2018-10-17T14:01:41.356Z,5.87
2018-10-17T14:04:08.527Z,7.00
2018-10-17T14:06:35.567Z,7.63
2018-10-17T14:09:02.935Z,7.53
2018-10-17T14:11:30.445Z,5.83
2018-10-17T14:13:57.520Z,6.70
2018-10-17T14:16:24.731Z,6.03
2018-10-17T14:18:51.832Z,5.90
2018-10-17T14:21:19.209Z,6.03
2018-10-17T14:23:46.321Z,7.23
2018-10-17T14:26:13.661Z,6.97
2018-10-17T14:28:40.802Z,5.37
2018-10-17T14:31:07.904Z,6.13
2018-10-17T14:33:35.284Z,5.27
2018-10-17T14:36:02.626Z,5.17
2018-10-17T14:38:29.792Z,5.13
2018-10-17T14:40:57.029Z,6.27
2018-10-17T14:43:24.405Z,4.93
2018-10-17T14:45:51.708Z,5.07
2018-10-17T14:48:18.971Z,6.20
2018-10-17T14:50:46.135Z,4.77
2018-10-17T14:53:13.378Z,6.00
2018-10-17T14:55:40.539Z,5.97
2018-10-17T14:58:07.874Z,5.40
2018-10-17T15:00:34.988Z,5.87
2018-10-17T15:03:02.087Z,6.17
2018-10-17T15:05:29.328Z,5.03
2018-10-17T15:07:56.631Z,4.03
2018-10-17T15:10:23.806Z,5.50
2018-10-17T15:12:50.909Z,3.90
2018-10-17T15:15:18.314Z,4.37
2018-10-17T15:17:45.524Z,6.00
2018-10-17T15:20:12.590Z,4.23
2018-10-17T15:22:39.822Z,4.03
2018-10-17T15:25:10.066Z,5.30
2018-10-17T15:27:40.332Z,3.70
2018-10-17T15:30:07.510Z,4.77
2018-10-17T15:32:34.569Z,4.97
2018-10-17T15:35:01.768Z,3.23
2018-10-17T15:37:29.063Z,3.70
2018-10-17T15:39:56.554Z,3.53
2018-10-17T15:42:23.733Z,3.67
2018-10-17T15:44:50.913Z,3.50
2018-10-17T15:47:18.073Z,4.20
2018-10-17T15:49:45.314Z,4.03
2018-10-17T15:52:12.448Z,2.93
2018-10-17T15:54:39.671Z,3.20
2018-10-17T15:57:06.901Z,3.30
2018-10-17T15:59:33.998Z,3.67
2018-10-17T16:02:01.201Z,3.17
2018-10-17T16:04:28.248Z,3.03
2018-10-17T16:06:55.338Z,3.93
2018-10-17T16:09:22.404Z,3.43
2018-10-17T16:11:49.482Z,3.63
2018-10-17T16:14:16.692Z,3.50
2018-10-17T16:16:43.752Z,3.17
2018-10-17T16:19:10.836Z,2.90
2018-10-17T16:21:38.054Z,2.60
2018-10-17T16:24:05.359Z,2.90
2018-10-17T16:26:32.426Z,2.90
2018-10-17T16:28:59.706Z,5.30
2018-10-17T16:31:44.679Z,2.73
2018-10-17T16:34:11.794Z,3.40
2018-10-17T16:36:39.016Z,2.73
2018-10-17T16:39:06.130Z,3.27
2018-10-17T16:41:33.263Z,3.23
2018-10-17T16:44:00.269Z,3.03
2018-10-17T16:46:27.405Z,3.00
2018-10-17T16:48:54.558Z,3.07
2018-10-17T16:51:21.923Z,3.83
2018-10-17T16:53:49.251Z,3.27
2018-10-17T16:56:16.462Z,3.50
2018-10-17T16:58:43.775Z,3.13
2018-10-17T17:01:10.797Z,3.40
2018-10-17T17:03:37.953Z,4.10
2018-10-17T17:06:05.409Z,3.40
2018-10-17T17:08:32.449Z,3.43
2018-10-17T17:11:00.324Z,3.63
2018-10-17T17:13:27.443Z,2.83
2018-10-17T17:15:55.474Z,2.63
2018-10-17T17:18:24.612Z,4.17
2018-10-17T17:20:51.911Z,4.47
2018-10-17T17:23:18.923Z,3.20
2018-10-17T17:25:46.291Z,5.87
2018-10-17T17:28:13.723Z,3.57
2018-10-17T17:30:40.899Z,5.20
2018-10-17T17:33:08.087Z,4.60
2018-10-17T17:35:35.089Z,3.33
2018-10-17T17:38:03.522Z,3.93
2018-10-17T17:40:30.742Z,3.70
2018-10-17T17:42:57.887Z,3.97
2018-10-17T17:45:25.133Z,2.90
2018-10-17T17:47:52.375Z,3.67
2018-10-17T17:50:19.453Z,3.63
2018-10-17T17:52:46.601Z,2.97
2018-10-17T17:55:13.939Z,4.40
2018-10-17T17:57:41.120Z,4.50
2018-10-17T18:00:08.364Z,4.57
2018-10-17T18:02:35.440Z,3.10
2018-10-17T18:05:02.632Z,4.30
2018-10-17T18:07:29.783Z,5.43
2018-10-17T18:09:56.980Z,3.83
2018-10-17T18:12:24.203Z,4.57
2018-10-17T18:14:51.311Z,4.77
2018-10-17T18:17:18.580Z,4.03
2018-10-17T18:19:45.758Z,5.33
2018-10-17T18:22:13.000Z,5.07
2018-10-17T18:24:40.041Z,3.73
2018-10-17T18:27:08.274Z,4.93
2018-10-17T18:29:36.729Z,5.97
2018-10-17T18:32:04.318Z,5.23
2018-10-17T18:34:31.452Z,4.83
2018-10-17T18:36:58.823Z,6.07
2018-10-17T18:39:25.891Z,4.00
2018-10-17T18:41:53.024Z,4.30
2018-10-17T18:44:20.135Z,5.87
2018-10-17T18:46:47.776Z,8.43
2018-10-17T18:49:15.180Z,5.20
2018-10-17T18:51:42.322Z,5.70
2018-10-17T18:54:09.378Z,5.17
2018-10-17T18:56:36.541Z,4.43
2018-10-17T18:59:03.816Z,5.90
2018-10-17T19:01:31.287Z,5.43
2018-10-17T19:03:58.771Z,5.67
2018-10-17T19:06:25.860Z,4.43
2018-10-17T19:08:53.110Z,5.43
2018-10-17T19:11:20.236Z,4.73
2018-10-17T19:13:47.337Z,4.63
2018-10-17T19:16:14.774Z,4.87
2018-10-17T19:18:43.175Z,4.20
2018-10-17T19:21:10.519Z,4.83
2018-10-17T19:23:37.526Z,5.67
2018-10-17T19:26:05.148Z,6.90
2018-10-17T19:28:32.645Z,4.10
2018-10-17T19:30:59.771Z,5.90
2018-10-17T19:33:26.911Z,4.63
2018-10-17T19:35:55.073Z,7.63
2018-10-17T19:38:22.443Z,4.73
2018-10-17T19:40:49.594Z,4.87
2018-10-17T19:43:16.665Z,5.40
2018-10-17T19:45:44.096Z,4.57
2018-10-17T19:48:11.528Z,5.97
2018-10-17T19:50:39.584Z,5.80
2018-10-17T19:53:12.270Z,5.97
2018-10-17T19:55:39.524Z,5.07
2018-10-17T19:58:06.684Z,5.40
2018-10-17T20:00:35.070Z,3.57
2018-10-17T20:03:02.197Z,5.23
2018-10-17T20:05:29.383Z,3.50
2018-10-17T20:07:56.523Z,5.60
2018-10-17T20:10:23.646Z,4.00
2018-10-17T20:12:50.935Z,5.53
2018-10-17T20:15:18.214Z,5.70
2018-10-17T20:17:45.240Z,6.40
2018-10-17T20:20:12.678Z,5.20
2018-10-17T20:22:39.772Z,4.10
2018-10-17T20:25:06.946Z,5.33
2018-10-17T20:27:34.277Z,5.27
2018-10-17T20:30:01.362Z,5.40
2018-10-17T20:32:28.431Z,8.10
2018-10-17T20:34:55.635Z,6.20
2018-10-17T20:37:22.809Z,4.63
2018-10-17T20:39:49.920Z,5.63
2018-10-17T20:42:17.119Z,5.40
2018-10-17T20:44:44.169Z,5.90
2018-10-17T20:47:11.255Z,4.83
2018-10-17T20:49:38.370Z,6.63
2018-10-17T20:52:05.521Z,4.30
2018-10-17T20:54:32.840Z,4.50
2018-10-17T20:57:00.175Z,4.17
2018-10-17T20:59:27.291Z,5.43
2018-10-17T21:01:54.492Z,5.63
2018-10-17T21:04:21.947Z,4.87
2018-10-17T21:06:49.110Z,4.83
2018-10-17T21:09:16.263Z,5.87
2018-10-17T21:11:43.336Z,3.97
2018-10-17T21:14:10.826Z,5.10
2018-10-17T21:16:37.927Z,6.47
2018-10-17T21:19:05.046Z,5.70
2018-10-17T21:21:32.173Z,5.93
2018-10-17T21:23:59.287Z,4.73
2018-10-17T21:26:26.514Z,5.20
2018-10-17T21:28:53.937Z,5.07
2018-10-17T21:31:21.289Z,5.23
2018-10-17T21:33:48.405Z,6.13
2018-10-17T21:36:15.507Z,6.03
2018-10-17T21:38:42.838Z,5.37
2018-10-17T21:41:09.969Z,5.70
2018-10-17T21:43:37.111Z,5.27
2018-10-17T21:46:04.407Z,5.30
2018-10-17T21:48:31.773Z,6.10
2018-10-17T21:50:58.844Z,7.93
2018-10-17T21:53:25.960Z,5.50
2018-10-17T21:55:53.098Z,6.30
2018-10-17T21:58:20.176Z,5.87
2018-10-17T22:00:47.334Z,6.33
2018-10-17T22:03:14.498Z,6.37
2018-10-17T22:08:09.568Z,6.53
2018-10-17T22:10:36.681Z,5.73
2018-10-17T22:13:04.179Z,5.53
2018-10-17T22:15:31.310Z,4.83
2018-10-17T22:17:58.496Z,5.73
2018-10-17T22:20:25.994Z,5.33
2018-10-17T22:22:53.136Z,7.40
2018-10-17T22:25:20.303Z,5.87
2018-10-17T22:27:47.880Z,5.10
2018-10-17T22:30:14.976Z,4.80
2018-10-17T22:32:42.132Z,4.20
2018-10-17T22:35:09.506Z,5.40
2018-10-17T22:37:36.708Z,5.83
2018-10-17T22:40:03.801Z,4.77
2018-10-17T22:42:30.920Z,4.90
2018-10-17T22:44:58.104Z,5.67
2018-10-17T22:47:25.544Z,5.03
2018-10-17T22:49:52.752Z,6.33
2018-10-17T22:52:19.789Z,5.93
2018-10-17T22:54:46.887Z,4.63
2018-10-17T22:57:14.119Z,5.17
2018-10-17T22:59:41.478Z,8.27
2018-10-17T23:02:08.793Z,5.50
2018-10-17T23:04:35.916Z,5.37
2018-10-17T23:07:03.036Z,5.30
2018-10-17T23:09:30.278Z,4.23
2018-10-17T23:11:57.465Z,4.57
2018-10-17T23:14:24.566Z,4.87
2018-10-17T23:16:51.717Z,5.07
2018-10-17T23:19:18.792Z,5.30
2018-10-17T23:21:45.874Z,3.83
2018-10-17T23:24:13.183Z,5.63
2018-10-17T23:26:40.396Z,4.70
2018-10-17T23:29:07.519Z,4.67
2018-10-17T23:31:34.777Z,4.10
2018-10-17T23:34:01.936Z,6.70
2018-10-17T23:36:29.003Z,5.67
2018-10-17T23:38:56.140Z,6.47
2018-10-17T23:41:23.239Z,6.03
2018-10-17T23:43:50.367Z,4.40
2018-10-17T23:46:17.453Z,4.37
2018-10-17T23:48:44.557Z,4.90
2018-10-17T23:51:12.009Z,4.17
2018-10-17T23:53:39.393Z,5.83
2018-10-17T23:56:07.891Z,5.23
2018-10-17T23:58:34.933Z,5.30
